Time;durP1;ratioP1;P1;durP2;ratioP2;P2;SDS_P1;SDS_P2;PMS_P1;PMS_P2;Temp;Humidity;BMP_temperature;BMP_pressure;BME280_temperature;BME280_humidity;BME280_pressure;Samples;Min_cycle;Max_cycle;Signal;HPM_P1;HPM_P2
2022/07/01 00:01:08;;;;;;;1.13;0.90;;;15.50;99.90;;;16.13;69.30;97711.63;5023239;28;20056;-39
2022/07/01 00:03:36;;;;;;;3.40;1.15;;;15.50;99.90;;;16.16;69.39;97710.41;5022862;28;20060;-40
2022/07/01 00:06:04;;;;;;;1.02;0.90;;;15.70;99.90;;;16.26;69.45;97711.69;5022477;28;20048;-40
2022/07/01 00:08:31;;;;;;;1.95;1.02;;;15.70;99.90;;;16.33;68.75;97723.34;5028120;28;20049;-39
2022/07/01 00:10:59;;;;;;;1.95;0.88;;;15.80;99.90;;;16.38;68.65;97709.34;5028946;28;20053;-39
2022/07/01 00:13:27;;;;;;;1.48;0.90;;;15.90;99.90;;;16.13;68.99;97708.94;5028852;28;20050;-39
2022/07/01 00:15:55;;;;;;;0.90;0.82;;;15.60;99.90;;;16.21;68.72;97702.59;5029016;28;20057;-39
2022/07/01 00:18:23;;;;;;;1.60;1.00;;;15.70;99.90;;;15.75;69.79;97707.38;5028561;28;20050;-39
2022/07/01 00:20:51;;;;;;;0.93;0.80;;;15.30;99.90;;;15.86;69.46;97702.53;5028905;28;20048;-39
2022/07/01 00:23:20;;;;;;;1.23;1.00;;;15.40;99.90;;;15.83;69.50;97701.03;5028722;28;20068;-39
2022/07/01 00:25:48;;;;;;;2.80;0.93;;;15.40;99.90;;;15.83;69.69;97708.28;5028440;28;20333;-39
2022/07/01 00:28:15;;;;;;;1.65;0.93;;;15.40;99.90;;;16.02;69.65;97714.84;5028324;28;20340;-39
2022/07/01 00:30:43;;;;;;;2.38;1.27;;;15.50;99.90;;;16.17;69.44;97714.72;5028798;28;20050;-39
2022/07/01 00:33:11;;;;;;;1.90;1.02;;;15.70;99.90;;;16.19;69.40;97718.06;5028621;28;20059;-39
2022/07/01 00:35:39;;;;;;;1.90;1.80;;;15.70;99.90;;;16.16;69.38;97726.53;5029117;28;20060;-39
2022/07/01 00:38:07;;;;;;;2.40;1.20;;;15.60;99.90;;;16.15;69.46;97731.06;5029084;28;20252;-39
2022/07/01 00:40:35;;;;;;;2.50;0.95;;;15.60;99.90;;;16.14;69.18;97732.06;5028688;28;20046;-39
2022/07/01 00:43:04;;;;;;;3.25;1.35;;;15.60;99.90;;;16.09;69.19;97729.13;5029223;28;20053;-39
2022/07/01 00:45:32;;;;;;;1.63;0.85;;;15.50;99.90;;;15.90;69.94;97725.28;5027460;28;20053;-39
2022/07/01 00:48:00;;;;;;;2.92;0.98;;;15.30;99.90;;;15.82;70.07;97714.66;5028312;28;20052;-39
2022/07/01 00:50:28;;;;;;;2.67;0.90;;;15.20;99.90;;;15.62;71.06;97719.81;5028627;28;20056;-39
2022/07/01 00:52:56;;;;;;;1.30;1.00;;;15.00;99.90;;;15.44;71.97;97725.63;5028765;28;20054;-40
2022/07/01 00:55:25;;;;;;;1.98;0.90;;;14.80;99.90;;;15.42;71.86;97731.16;5028332;28;20042;-40
2022/07/01 00:57:53;;;;;;;1.00;0.90;;;14.80;99.90;;;15.40;71.71;97735.06;5028233;28;20076;-39
2022/07/01 01:00:24;;;;;;;1.23;1.10;;;14.80;99.90;;;15.43;71.91;97732.84;5028998;28;20068;-40
2022/07/01 01:02:53;;;;;;;1.75;1.08;;;14.90;99.90;;;15.38;71.54;97729.88;5028869;28;20053;-39
2022/07/01 01:05:21;;;;;;;0.80;0.80;;;14.90;99.90;;;15.22;72.31;97728.28;5027277;28;20041;-39
2022/07/01 01:07:52;;;;;;;1.70;0.90;;;14.80;99.90;;;15.14;72.79;97721.16;5027173;28;20046;-39
2022/07/01 01:10:23;;;;;;;1.88;1.02;;;14.70;99.90;;;15.14;73.01;97713.13;5027907;28;20076;-39
2022/07/01 01:12:51;;;;;;;1.23;0.90;;;14.70;99.90;;;15.15;72.96;97709.41;5028964;28;20060;-40
2022/07/01 01:15:20;;;;;;;1.85;1.20;;;14.70;99.90;;;14.92;74.37;97709.53;5028142;28;20056;-39
2022/07/01 01:17:48;;;;;;;1.48;1.15;;;14.60;99.90;;;15.08;73.43;97713.88;5026804;28;20368;-39
2022/07/01 01:20:18;;;;;;;1.63;1.10;;;14.70;99.90;;;15.00;73.98;97705.94;5024243;28;20046;-39
2022/07/01 01:22:48;;;;;;;0.90;0.88;;;14.60;99.90;;;15.05;73.61;97703.53;5025947;28;20341;-38
2022/07/01 01:25:16;;;;;;;1.65;1.08;;;14.60;99.90;;;14.97;74.33;97692.91;5024673;28;20050;-39
2022/07/01 01:27:44;;;;;;;1.77;1.10;;;14.60;99.90;;;14.67;75.86;97692.94;5023880;28;20053;-39
2022/07/01 01:30:13;;;;;;;1.52;1.10;;;14.50;99.90;;;14.82;75.21;97682.22;5025021;28;20348;-39
2022/07/01 01:32:42;;;;;;;1.30;1.20;;;14.50;99.90;;;14.75;75.31;97681.28;5025030;28;20049;-39
2022/07/01 01:35:10;;;;;;;1.58;1.05;;;14.50;99.90;;;14.75;75.48;97682.13;5024686;28;20050;-39
2022/07/01 01:37:38;;;;;;;1.70;1.00;;;14.50;99.90;;;14.70;76.04;97683.72;5024513;28;20398;-39
2022/07/01 01:40:07;;;;;;;1.08;0.98;;;14.50;99.90;;;14.89;75.24;97685.00;5025745;28;20049;-39
2022/07/01 01:42:35;;;;;;;1.55;1.20;;;14.60;99.90;;;14.97;74.88;97679.50;5024665;28;20367;-39
2022/07/01 01:45:04;;;;;;;2.20;1.10;;;14.70;99.90;;;14.86;75.38;97682.66;5024549;28;20072;-39
2022/07/01 01:47:32;;;;;;;4.28;1.00;;;14.60;99.90;;;14.92;75.11;97690.78;5024539;28;20244;-39
2022/07/01 01:49:59;;;;;;;1.25;0.88;;;14.60;99.90;;;14.92;75.27;97689.97;5024945;28;20049;-39
2022/07/01 01:52:27;;;;;;;1.33;1.20;;;14.70;99.90;;;14.85;75.85;97687.22;5023092;28;20046;-39
2022/07/01 01:54:55;;;;;;;1.38;1.00;;;14.60;99.90;;;14.84;75.44;97682.84;5025215;28;20317;-39
2022/07/01 01:57:23;;;;;;;3.35;1.38;;;14.60;99.90;;;14.83;75.58;97670.50;5024599;28;20312;-39
2022/07/01 01:59:51;;;;;;;1.50;1.10;;;14.60;99.90;;;14.88;75.49;97668.06;5024351;28;20042;-39
2022/07/01 02:02:18;;;;;;;1.48;1.20;;;14.60;99.90;;;14.96;75.17;97659.06;5024429;28;20046;-39
2022/07/01 02:04:46;;;;;;;1.20;1.10;;;14.70;99.90;;;14.90;75.34;97641.91;5024576;28;20068;-39
2022/07/01 02:07:14;;;;;;;2.75;1.38;;;14.70;99.90;;;14.79;75.54;97638.88;5024337;28;20050;-39
2022/07/01 02:09:42;;;;;;;1.75;1.13;;;14.60;99.90;;;14.82;75.62;97623.25;5024600;28;20064;-39
2022/07/01 02:12:10;;;;;;;1.42;1.00;;;14.60;99.90;;;14.84;75.85;97629.25;5022507;28;20060;-39
2022/07/01 02:14:38;;;;;;;2.88;1.10;;;14.60;99.90;;;14.76;75.83;97626.69;5024028;28;20260;-40
2022/07/01 02:17:07;;;;;;;2.88;1.20;;;14.50;99.90;;;14.91;75.51;97626.66;5024793;28;20132;-38
2022/07/01 02:19:35;;;;;;;1.45;1.30;;;14.60;99.90;;;14.69;76.07;97617.72;5023725;28;20046;-39
2022/07/01 02:22:03;;;;;;;1.77;1.38;;;14.40;99.90;;;14.52;76.71;97612.56;5024129;28;20050;-39
2022/07/01 02:24:32;;;;;;;1.85;1.25;;;14.30;99.90;;;14.55;76.77;97622.06;5023901;28;20048;-38
2022/07/01 02:26:59;;;;;;;2.80;1.25;;;14.30;99.90;;;14.39;77.55;97620.44;5024264;28;20049;-39
2022/07/01 02:29:27;;;;;;;2.80;1.20;;;14.20;99.90;;;14.27;77.64;97622.75;5023515;28;20104;-39
2022/07/01 02:31:55;;;;;;;2.25;1.10;;;14.10;99.90;;;14.18;78.20;97622.00;5024279;28;20229;-38
2022/07/01 02:34:23;;;;;;;1.48;0.90;;;14.10;99.90;;;14.32;77.46;97624.84;5023713;28;20046;-38
2022/07/01 02:36:55;;;;;;;1.33;1.10;;;14.20;99.90;;;14.21;77.51;97628.00;5023667;28;20049;-38
2022/07/01 02:39:23;;;;;;;1.10;1.00;;;14.10;99.90;;;14.38;76.78;97624.97;5023483;28;20041;-39
2022/07/01 02:44:38;;;;;;;1.55;1.00;;;14.10;99.90;;;14.21;77.41;97631.53;5023582;28;20056;-39
2022/07/01 02:47:06;;;;;;;3.67;1.20;;;14.00;99.90;;;14.19;77.41;97628.22;5023312;28;20057;-38
2022/07/01 02:49:34;;;;;;;2.80;1.40;;;14.00;99.90;;;14.04;78.11;97636.22;5023572;28;20063;-39
2022/07/01 02:52:02;;;;;;;5.00;1.10;;;14.00;99.90;;;14.13;77.45;97636.94;5023142;28;20049;-39
2022/07/01 02:54:30;;;;;;;1.42;1.02;;;14.00;99.90;;;14.13;77.25;97631.59;5023630;28;20046;-38
2022/07/01 02:56:58;;;;;;;1.13;1.00;;;14.00;99.90;;;14.27;77.20;97630.78;5023372;28;20056;-38
2022/07/01 02:59:26;;;;;;;1.65;1.10;;;14.20;99.90;;;14.09;78.15;97635.66;5023153;28;20048;-38
2022/07/01 03:01:53;;;;;;;2.08;1.10;;;14.10;99.90;;;14.28;77.41;97645.00;5023399;28;20042;-39
2022/07/01 03:04:21;;;;;;;1.50;1.20;;;14.10;99.90;;;14.33;77.05;97642.59;5023429;28;20056;-38
2022/07/01 03:06:49;;;;;;;2.65;1.27;;;14.20;99.90;;;14.09;78.15;97638.34;5023089;28;20050;-38
2022/07/01 03:09:17;;;;;;;1.77;1.30;;;14.10;99.90;;;14.34;76.99;97637.03;5022960;28;20052;-39
2022/07/01 03:11:45;;;;;;;1.70;1.30;;;14.20;99.90;;;14.09;77.79;97633.81;5021971;28;20054;-38
2022/07/01 03:14:12;;;;;;;2.22;1.30;;;14.00;99.90;;;14.17;77.71;97643.59;5023709;28;20054;-38
2022/07/01 03:16:41;;;;;;;1.73;1.40;;;14.00;99.90;;;14.16;77.60;97641.94;5023315;28;20061;-38
2022/07/01 03:19:09;;;;;;;4.30;1.27;;;14.10;99.90;;;14.12;77.61;97646.00;5022788;28;20049;-38
2022/07/01 03:21:37;;;;;;;1.42;1.25;;;14.00;99.90;;;14.25;77.10;97648.03;5022982;28;20041;-38
2022/07/01 03:24:05;;;;;;;1.92;1.40;;;14.10;99.90;;;14.16;77.15;97653.47;5023305;28;20049;-39
2022/07/01 03:26:33;;;;;;;3.20;1.30;;;14.10;99.90;;;14.07;77.43;97648.41;5022914;28;20050;-39
2022/07/01 03:29:05;;;;;;;2.80;1.60;;;13.90;99.90;;;14.23;76.63;97639.34;5023152;28;20048;-39
2022/07/01 03:31:33;;;;;;;3.28;1.55;;;14.10;99.90;;;14.10;77.39;97631.97;5022800;28;20052;-39
2022/07/01 03:34:01;;;;;;;2.17;1.30;;;14.00;99.90;;;14.07;77.38;97651.06;5022436;28;20057;-39
2022/07/01 03:36:29;;;;;;;3.08;1.30;;;14.00;99.90;;;14.10;77.37;97658.75;5023395;28;20056;-39
2022/07/01 03:38:57;;;;;;;2.80;1.60;;;14.00;99.90;;;14.03;77.62;97680.03;5022620;28;20240;-39
2022/07/01 03:41:25;;;;;;;3.80;1.88;;;14.00;99.90;;;14.06;77.45;97681.56;5021831;28;20044;-39
2022/07/01 03:43:53;;;;;;;1.65;1.55;;;14.00;99.90;;;14.02;77.31;97696.31;5022561;28;20196;-40
2022/07/01 03:46:20;;;;;;;5.32;1.90;;;14.00;99.90;;;13.92;78.04;97697.41;5022352;28;20046;-39
2022/07/01 03:48:48;;;;;;;1.63;1.42;;;13.90;99.90;;;14.18;77.03;97702.31;5022348;28;20046;-39
2022/07/01 03:51:16;;;;;;;1.88;1.50;;;14.10;99.90;;;14.29;76.76;97698.38;5022661;28;20050;-39
2022/07/01 03:56:31;;;;;;;2.25;1.70;;;14.10;99.90;;;14.26;76.63;97709.44;5022542;28;20052;-39
2022/07/01 03:58:59;;;;;;;2.33;1.88;;;14.10;99.90;;;14.23;76.92;97711.66;5021227;28;20046;-39
2022/07/01 04:01:27;;;;;;;3.20;1.60;;;14.10;99.90;;;14.22;76.76;97718.03;5022415;28;20072;-39
2022/07/01 04:03:56;;;;;;;1.98;1.65;;;14.10;99.90;;;14.25;76.49;97737.25;5022324;28;20048;-39
2022/07/01 04:06:24;;;;;;;3.08;1.60;;;14.10;99.90;;;14.38;75.99;97732.09;5022278;28;20228;-39
2022/07/01 04:08:53;;;;;;;2.53;2.10;;;14.20;99.90;;;14.38;75.79;97745.50;5022955;28;20244;-39
2022/07/01 04:11:21;;;;;;;2.55;1.80;;;14.30;99.90;;;14.51;75.22;97750.19;5021356;28;20050;-39
2022/07/01 04:13:52;;;;;;;3.47;1.70;;;14.40;99.90;;;14.46;75.47;97749.94;5022746;28;20064;-39
2022/07/01 04:16:20;;;;;;;3.75;2.00;;;14.30;99.90;;;14.44;75.28;97773.34;5022752;28;20232;-39
2022/07/01 04:18:49;;;;;;;2.28;1.75;;;14.30;99.90;;;14.51;75.19;97774.31;5022022;28;20054;-39
2022/07/01 04:24:06;;;;;;;2.97;2.15;;;14.30;99.90;;;14.32;74.93;97772.97;5022220;28;20046;-39
2022/07/01 04:26:35;;;;;;;3.58;1.75;;;14.20;99.90;;;14.33;75.14;97769.28;5022245;28;20046;-38
2022/07/01 04:29:07;;;;;;;2.65;1.67;;;14.20;99.90;;;14.48;74.66;97782.72;5022321;28;20232;-38
2022/07/01 04:31:39;;;;;;;2.75;2.00;;;14.30;99.90;;;14.57;74.23;97786.16;5022859;28;20263;-38
2022/07/01 04:34:09;;;;;;;2.25;1.67;;;14.40;99.90;;;14.68;73.78;97792.94;5022391;28;20421;-38
2022/07/01 04:36:37;;;;;;;9.88;2.17;;;14.50;99.90;;;14.74;73.57;97786.84;5021996;28;20340;-38
2022/07/01 04:39:06;;;;;;;3.22;1.80;;;14.50;99.90;;;14.70;73.36;97794.41;5021938;28;20226;-38
2022/07/01 04:44:20;;;;;;;2.50;1.55;;;14.40;99.90;;;14.51;73.26;97811.81;5022514;28;20057;-39
2022/07/01 04:46:48;;;;;;;2.65;1.77;;;14.30;99.90;;;14.49;73.52;97797.75;5022641;28;20060;-38
2022/07/01 04:49:16;;;;;;;2.83;1.50;;;14.20;99.90;;;14.47;73.53;97802.47;5021956;28;20056;-38
2022/07/01 04:51:44;;;;;;;2.30;1.60;;;14.20;99.90;;;14.55;73.28;97810.41;5021531;28;20050;-39
2022/07/01 04:54:12;;;;;;;1.48;1.30;;;14.30;99.90;;;14.32;73.61;97806.97;5024574;28;20242;-39
2022/07/01 04:56:40;;;;;;;2.53;1.30;;;14.20;99.90;;;14.45;73.71;97809.84;5025894;28;20272;-38
2022/07/01 04:59:13;;;;;;;2.05;1.55;;;14.30;99.90;;;14.47;73.90;97810.50;5025255;28;20274;-38
2022/07/01 05:01:43;;;;;;;2.00;1.50;;;14.30;99.90;;;14.19;74.44;97823.66;5025485;28;20042;-39
2022/07/01 05:04:12;;;;;;;1.90;1.52;;;14.00;99.90;;;14.41;73.87;97819.28;5024882;28;20045;-39
2022/07/01 05:06:41;;;;;;;2.10;1.48;;;14.20;99.90;;;14.36;74.34;97809.13;5026381;28;20251;-39
2022/07/01 05:09:09;;;;;;;2.75;1.73;;;14.20;99.90;;;14.32;74.93;97805.09;5025705;28;20046;-40
2022/07/01 05:11:38;;;;;;;4.10;2.30;;;14.20;99.90;;;14.34;75.01;97804.94;5024744;28;20058;-39
2022/07/01 05:14:07;;;;;;;2.97;2.28;;;14.10;99.90;;;14.35;75.48;97804.75;5025141;28;20049;-39
2022/07/01 05:16:36;;;;;;;2.92;1.80;;;14.10;99.90;;;14.27;75.91;97809.34;5025213;28;20244;-39
2022/07/01 05:21:56;;;;;;;3.47;2.10;;;14.00;99.90;;;14.23;76.13;97808.03;5025805;28;20050;-39
2022/07/01 05:24:30;;;;;;;3.22;2.08;;;14.00;99.90;;;14.28;76.13;97811.84;5025178;28;20268;-39
2022/07/01 05:27:00;;;;;;;2.50;1.83;;;14.00;99.90;;;14.36;75.88;97814.47;5024322;28;20052;-40
2022/07/01 05:29:29;;;;;;;2.40;1.85;;;14.10;99.90;;;14.31;76.52;97816.03;5024946;28;20252;-39
2022/07/01 05:31:56;;;;;;;3.42;2.10;;;14.10;99.90;;;14.33;76.44;97811.31;5025053;28;20056;-38
2022/07/01 05:34:24;;;;;;;3.63;2.05;;;14.10;99.90;;;14.11;77.30;97807.63;5025246;28;20053;-38
2022/07/01 05:36:52;;;;;;;2.72;2.25;;;13.90;99.90;;;14.11;77.14;97805.81;5024942;28;20046;-39
2022/07/01 05:39:20;;;;;;;2.83;2.08;;;13.90;99.90;;;14.31;76.33;97803.47;5023564;28;20056;-39
2022/07/01 05:41:48;;;;;;;4.85;2.00;;;14.10;99.90;;;14.43;76.39;97801.16;5025282;28;20056;-39
2022/07/01 05:44:16;;;;;;;4.07;3.08;;;14.20;99.90;;;14.47;76.31;97807.00;5024953;28;20052;-39
2022/07/01 05:46:44;;;;;;;4.38;2.63;;;14.20;99.90;;;14.37;76.81;97804.59;5025350;28;20052;-39
2022/07/01 05:49:12;;;;;;;4.40;2.40;;;14.10;99.90;;;14.29;76.78;97813.53;5024417;28;20060;-38
2022/07/01 05:51:45;;;;;;;3.22;2.55;;;14.00;99.90;;;14.14;77.53;97815.31;5026434;28;20050;-39
2022/07/01 05:54:13;;;;;;;4.45;3.08;;;13.90;99.90;;;14.29;76.93;97810.84;5024435;28;20045;-38
2022/07/01 05:56:41;;;;;;;4.38;2.85;;;14.00;99.90;;;14.22;77.50;97806.38;5024473;28;20053;-40
2022/07/01 05:59:09;;;;;;;3.28;2.10;;;13.90;99.90;;;14.33;76.99;97814.81;5024247;28;20049;-39
2022/07/01 06:01:37;;;;;;;6.38;2.20;;;14.10;99.90;;;14.34;76.86;97824.50;5024248;28;20060;-38
2022/07/01 06:04:04;;;;;;;3.20;2.10;;;14.10;99.90;;;14.36;76.94;97822.50;5024062;28;20068;-39
2022/07/01 06:06:33;;;;;;;3.65;3.17;;;14.10;99.90;;;14.50;76.83;97822.69;5024672;28;20052;-39
2022/07/01 06:09:01;;;;;;;3.63;2.45;;;14.30;99.90;;;14.55;76.87;97833.72;5024125;28;20071;-39
2022/07/01 06:11:31;;;;;;;3.65;2.95;;;14.30;99.90;;;14.50;76.94;97834.25;5023665;28;20045;-39
2022/07/01 06:13:59;;;;;;;4.03;2.42;;;14.20;99.90;;;14.62;76.76;97840.03;5023983;28;20046;-39
2022/07/01 06:16:27;;;;;;;3.35;2.38;;;14.30;99.90;;;14.51;76.99;97843.94;5024253;28;20050;-39
2022/07/01 06:18:58;;;;;;;4.57;2.47;;;14.20;99.90;;;14.63;76.45;97851.59;5024400;28;20064;-39
2022/07/01 06:21:27;;;;;;;3.42;2.15;;;14.30;99.90;;;14.54;77.02;97856.16;5024073;28;20071;-39
2022/07/01 06:23:55;;;;;;;3.47;2.55;;;14.20;99.90;;;14.53;76.91;97865.22;5023882;28;20045;-38
2022/07/01 06:26:23;;;;;;;3.92;2.80;;;14.20;99.90;;;14.51;77.14;97869.91;5024015;28;20259;-39
2022/07/01 06:28:51;;;;;;;4.55;2.63;;;14.10;99.90;;;14.52;77.04;97867.06;5024340;28;20058;-39
2022/07/01 06:31:19;;;;;;;9.27;2.92;;;14.20;99.90;;;14.52;77.39;97868.88;5023526;28;20049;-39
2022/07/01 06:33:47;;;;;;;4.90;2.63;;;14.20;99.90;;;14.33;78.07;97876.41;5023732;28;20355;-39
2022/07/01 06:36:16;;;;;;;3.95;3.03;;;14.10;99.90;;;14.39;77.79;97872.19;5023693;28;20050;-39
2022/07/01 06:38:44;;;;;;;4.22;3.17;;;14.10;99.90;;;14.41;78.15;97866.66;5023375;28;20045;-38
2022/07/01 06:41:27;;;;;;;6.00;2.88;;;14.10;99.90;;;14.44;77.96;97869.78;5023771;28;20058;-39
2022/07/01 06:44:00;;;;;;;5.78;3.47;;;14.10;99.90;;;14.48;78.05;97872.94;5023303;28;20051;-39
2022/07/01 06:46:29;;;;;;;5.18;3.20;;;14.20;99.90;;;14.48;78.19;97870.25;5023737;28;20374;-40
2022/07/01 06:48:58;;;;;;;4.32;2.78;;;14.10;99.90;;;14.48;78.21;97875.63;5022050;28;20042;-39
2022/07/01 06:51:27;;;;;;;4.07;2.75;;;14.10;99.90;;;14.51;77.94;97868.06;5023608;28;20348;-38
2022/07/01 06:53:56;;;;;;;4.43;2.63;;;14.20;99.90;;;14.54;78.15;97857.00;5023643;28;20050;-38
2022/07/01 06:56:24;;;;;;;4.35;3.03;;;14.30;99.90;;;14.59;77.91;97867.19;5023473;28;20044;-38
2022/07/01 06:58:51;;;;;;;4.75;2.85;;;14.30;99.90;;;14.56;77.86;97872.91;5022890;28;20259;-38
2022/07/01 07:01:20;;;;;;;6.60;3.25;;;14.20;99.90;;;14.57;77.78;97869.22;5023462;28;20049;-39
2022/07/01 07:03:47;;;;;;;3.75;2.80;;;14.20;99.90;;;14.48;77.83;97868.44;5023188;28;20149;-39
2022/07/01 07:06:16;;;;;;;4.30;2.80;;;14.10;99.90;;;14.55;77.89;97873.88;5022073;28;20050;-39
2022/07/01 07:08:44;;;;;;;4.47;2.72;;;14.20;99.90;;;14.71;77.74;97875.63;5022883;28;20337;-39
2022/07/01 07:11:14;;;;;;;3.70;2.60;;;14.40;99.90;;;14.68;77.88;97881.34;5022790;28;20056;-39
2022/07/01 07:13:43;;;;;;;3.25;2.30;;;14.40;99.90;;;14.72;77.54;97882.66;5023162;28;20380;-39
2022/07/01 07:16:10;;;;;;;3.92;2.88;;;14.40;99.90;;;14.73;77.58;97886.97;5022779;28;20359;-39
2022/07/01 07:18:39;;;;;;;3.40;2.95;;;14.40;99.90;;;14.77;77.30;97890.97;5022731;28;20059;-39
2022/07/01 07:21:06;;;;;;;3.47;2.88;;;14.40;99.90;;;14.76;77.29;97882.09;5023291;28;20075;-39
2022/07/01 07:23:35;;;;;;;2.92;2.63;;;14.50;99.90;;;14.73;77.14;97885.16;5022959;28;20045;-39
2022/07/01 07:26:03;;;;;;;3.67;2.70;;;14.40;99.90;;;14.85;77.08;97890.06;5022591;28;20056;-39
2022/07/01 07:28:31;;;;;;;2.88;2.55;;;14.60;99.90;;;14.86;76.78;97892.56;5022640;28;20042;-40
2022/07/01 07:30:59;;;;;;;4.40;3.13;;;14.60;99.90;;;14.91;76.72;97898.22;5022979;28;20048;-40
2022/07/01 07:33:27;;;;;;;3.72;2.70;;;14.60;99.90;;;14.84;76.82;97904.47;5022816;28;20054;-39
2022/07/01 07:35:55;;;;;;;3.97;2.75;;;14.50;99.90;;;14.87;76.83;97901.41;5022750;28;20046;-39
2022/07/01 07:38:22;;;;;;;4.55;2.70;;;14.50;99.90;;;14.94;76.74;97921.13;5022562;28;20050;-39
2022/07/01 07:40:50;;;;;;;4.10;2.80;;;14.60;99.90;;;14.71;77.07;97934.56;5022640;28;20046;-39
2022/07/01 07:43:18;;;;;;;4.22;2.83;;;14.50;99.90;;;14.97;76.41;97928.81;5022228;28;20041;-39
2022/07/01 07:45:46;;;;;;;4.80;2.45;;;14.60;99.90;;;14.90;76.48;97917.97;5022444;28;20055;-38
2022/07/01 07:48:14;;;;;;;3.85;3.13;;;14.60;99.90;;;14.89;76.49;97905.59;5022259;28;20050;-38
2022/07/01 07:50:42;;;;;;;4.07;3.20;;;14.50;99.90;;;14.92;76.44;97893.69;5022538;28;20052;-38
2022/07/01 07:53:11;;;;;;;3.97;3.33;;;14.60;99.90;;;14.93;76.39;97892.69;5023537;28;20058;-38
2022/07/01 07:55:40;;;;;;;4.95;3.28;;;14.60;99.90;;;15.07;76.26;97896.38;5022504;28;20048;-38
2022/07/01 07:58:08;;;;;;;4.68;2.70;;;14.70;99.90;;;14.98;75.89;97895.63;5022243;28;20064;-38
2022/07/01 08:00:36;;;;;;;3.42;2.70;;;14.70;99.90;;;15.11;76.04;97903.88;5022519;28;20056;-39
2022/07/01 08:03:07;;;;;;;3.30;3.00;;;14.80;99.90;;;14.95;76.05;97898.69;5022497;28;20348;-39
2022/07/01 08:05:35;;;;;;;4.10;3.33;;;14.70;99.90;;;15.05;76.07;97909.16;5022338;28;20046;-39
2022/07/01 08:08:04;;;;;;;5.43;3.20;;;14.70;99.90;;;15.09;76.26;97915.81;5022149;28;20344;-39
2022/07/01 08:10:32;;;;;;;3.35;2.65;;;14.80;99.90;;;14.92;76.01;97918.63;5021761;28;20049;-38
2022/07/01 08:13:03;;;;;;;3.65;2.80;;;14.70;99.90;;;15.16;75.95;97924.78;5028334;28;20049;-38
2022/07/01 08:15:33;;;;;;;4.20;3.33;;;14.90;99.90;;;15.27;76.08;97934.22;5042117;28;20055;-40
2022/07/01 08:18:01;;;;;;;5.53;3.25;;;15.00;99.90;;;15.33;75.79;97939.69;5040514;28;20053;-40
2022/07/01 08:20:28;;;;;;;4.47;3.15;;;15.10;99.90;;;15.36;75.59;97944.66;5042068;28;20060;-39
2022/07/01 08:22:56;;;;;;;5.63;2.90;;;15.10;99.90;;;15.44;75.30;97943.75;5042010;28;20045;-40
2022/07/01 08:25:24;;;;;;;3.33;3.00;;;15.20;99.90;;;15.27;75.94;97945.75;5041804;28;20054;-38
2022/07/01 08:27:52;;;;;;;4.05;3.40;;;15.00;99.90;;;15.35;75.70;97947.53;5040957;28;20054;-38
2022/07/01 08:30:20;;;;;;;3.97;2.67;;;15.10;99.90;;;15.35;75.48;97952.91;5045888;28;20045;-39
2022/07/01 08:32:48;;;;;;;3.65;2.70;;;15.10;99.90;;;15.29;75.70;97956.31;5045954;28;20045;-38
2022/07/01 08:35:15;;;;;;;3.83;2.47;;;15.00;99.90;;;15.39;75.58;97956.88;5045808;28;20320;-39
2022/07/01 08:37:43;;;;;;;3.63;2.30;;;15.20;99.90;;;15.36;74.85;97966.13;5045784;28;20058;-38
2022/07/01 08:40:11;;;;;;;2.30;1.80;;;15.20;99.90;;;14.92;75.03;97964.19;5045860;28;20050;-39
2022/07/01 08:42:39;;;;;;;4.10;2.03;;;14.70;99.90;;;15.05;75.06;97968.97;5045519;28;20370;-39
2022/07/01 08:45:08;;;;;;;3.03;2.03;;;14.80;99.90;;;15.09;75.13;97972.94;5045469;28;20049;-39
2022/07/01 08:47:52;;;;;;;3.65;1.67;;;14.80;99.90;;;14.98;74.50;97984.09;5045200;28;20370;-39
2022/07/01 08:50:20;;;;;;;2.03;1.75;;;14.70;99.90;;;15.20;74.73;97984.22;5045668;28;20045;-39
2022/07/01 08:52:50;;;;;;;4.50;2.28;;;14.80;99.90;;;14.92;74.78;97984.81;5045491;28;20252;-39
2022/07/01 08:55:20;;;;;;;3.92;2.22;;;14.60;99.90;;;14.93;75.03;97986.50;5045424;28;20229;-39
2022/07/01 08:57:49;;;;;;;2.67;2.00;;;14.50;99.90;;;14.88;74.98;98000.44;5045182;28;20045;-39
2022/07/01 09:00:17;;;;;;;3.47;2.33;;;14.50;99.90;;;14.95;75.13;98001.38;5045529;28;20313;-39
2022/07/01 09:03:03;;;;;;;3.95;1.85;;;14.60;99.90;;;14.66;75.78;97999.44;5045450;28;20069;-39
2022/07/01 09:05:31;;;;;;;3.55;2.20;;;14.40;99.90;;;14.80;75.63;97988.94;5045247;28;20047;-39
2022/07/01 09:08:05;;;;;;;2.47;1.92;;;14.40;99.90;;;14.66;75.79;97994.06;5043908;28;20240;-39
2022/07/01 09:10:34;;;;;;;3.85;2.20;;;14.30;99.90;;;14.64;76.33;97993.41;5044828;28;20050;-39
2022/07/01 09:13:09;;;;;;;2.65;1.95;;;14.30;99.90;;;14.72;76.79;98000.56;5045255;28;20044;-39
2022/07/01 09:15:39;;;;;;;3.70;2.00;;;14.50;99.90;;;14.70;76.11;97984.66;5045322;28;20053;-39
2022/07/01 09:18:16;;;;;;;3.05;2.08;;;14.40;99.90;;;14.78;76.46;97965.00;5045202;28;20055;-40
2022/07/01 09:20:47;;;;;;;3.63;2.20;;;14.50;99.90;;;14.86;75.92;97956.88;5044993;28;20239;-39
2022/07/01 09:23:18;;;;;;;2.28;1.80;;;14.60;99.90;;;14.74;75.40;97932.38;5045010;28;20236;-39
2022/07/01 09:25:51;;;;;;;2.08;1.88;;;14.50;99.90;;;14.84;75.69;97942.84;5044824;28;20048;-39
2022/07/01 09:28:25;;;;;;;3.55;1.90;;;14.60;99.90;;;14.92;75.34;97963.38;5044801;28;20099;-39
2022/07/01 09:30:59;;;;;;;2.28;1.90;;;14.70;99.90;;;14.92;75.96;97971.41;5060224;28;20045;-39
2022/07/01 09:33:29;;;;;;;1.95;1.50;;;14.70;99.90;;;15.00;75.55;97990.09;5044952;28;20050;-39
2022/07/01 09:35:59;;;;;;;3.53;1.88;;;14.80;99.90;;;15.19;75.22;97991.44;5044868;28;20053;-39
2022/07/01 09:38:27;;;;;;;3.53;2.42;;;14.90;99.90;;;15.28;75.32;97986.84;5044567;28;20060;-39
2022/07/01 09:41:06;;;;;;;2.90;1.92;;;15.10;99.90;;;15.32;74.62;97977.41;5044554;28;20053;-39
2022/07/01 09:43:35;;;;;;;5.68;2.92;;;15.00;99.90;;;15.34;74.85;97980.75;5044697;28;20050;-39
2022/07/01 09:46:10;;;;;;;2.25;1.60;;;15.10;99.90;;;15.43;74.50;97989.53;5044304;28;20056;-39
2022/07/01 09:48:38;;;;;;;2.50;1.70;;;15.30;99.90;;;15.51;74.14;97992.97;5044230;28;20048;-39
2022/07/01 09:51:09;;;;;;;3.40;1.75;;;15.30;99.90;;;15.54;73.14;97992.59;5044268;28;20055;-39
2022/07/01 09:53:43;;;;;;;2.58;1.80;;;15.40;99.90;;;15.59;73.25;97991.22;5044348;28;20055;-39
2022/07/01 09:56:11;;;;;;;2.78;1.55;;;15.40;99.90;;;15.76;73.31;97984.69;5044146;28;20049;-39
2022/07/01 09:58:42;;;;;;;2.70;1.70;;;15.70;99.90;;;15.67;71.86;97993.81;5044186;28;20041;-40
2022/07/01 10:01:14;;;;;;;1.88;1.60;;;15.50;99.90;;;15.49;71.17;97994.16;5059668;28;20049;-39
2022/07/01 10:03:42;;;;;;;2.67;1.80;;;15.20;99.90;;;15.54;72.29;98003.31;5044384;28;20296;-38
2022/07/01 10:06:57;;;;;;;2.95;1.50;;;15.30;99.90;;;15.63;71.97;98006.78;5044244;28;20056;-39
2022/07/01 10:10:15;;;;;;;2.33;1.83;;;15.50;99.90;;;15.71;71.37;97993.25;5057411;28;20057;-38
2022/07/01 10:12:52;;;;;;;2.45;1.80;;;15.70;99.90;;;15.67;71.94;98000.00;5048166;28;20064;-39
2022/07/01 10:15:21;;;;;;;4.43;1.83;;;15.60;99.90;;;15.82;71.78;97992.00;5043910;28;20072;-39
2022/07/01 10:17:52;;;;;;;2.50;1.70;;;15.70;99.90;;;15.68;71.20;97992.78;5042188;28;20071;-39
2022/07/01 10:20:26;;;;;;;2.50;1.63;;;15.60;99.90;;;15.53;71.68;97996.31;5044097;28;20049;-39
2022/07/01 10:23:06;;;;;;;2.42;1.60;;;15.50;99.90;;;15.54;71.83;98010.56;5044019;28;20052;-38
2022/07/01 10:25:43;;;;;;;2.38;1.70;;;15.60;99.90;;;15.31;69.78;98006.06;5044156;28;20340;-38
2022/07/01 10:28:41;;;;;;;1.65;1.42;;;15.40;99.90;;;15.33;71.21;98008.56;5043681;28;20067;-39
2022/07/01 10:31:18;;;;;;;2.83;2.10;;;15.30;99.90;;;15.69;72.11;98005.19;5043897;28;20051;-39
2022/07/01 10:33:58;;;;;;;4.72;2.17;;;15.70;99.90;;;15.89;71.20;98003.63;5043835;28;20046;-39
2022/07/01 10:36:32;;;;;;;3.30;2.00;;;16.00;99.90;;;16.10;71.33;98000.19;5043083;28;20057;-38
2022/07/01 10:39:00;;;;;;;3.08;1.50;;;16.20;99.90;;;16.26;70.17;98014.44;5043301;28;20075;-38
2022/07/01 10:41:52;;;;;;;1.92;1.60;;;16.40;99.90;;;16.53;70.34;98019.06;5044313;28;20255;-38
2022/07/01 10:44:39;;;;;;;2.15;1.55;;;16.70;99.90;;;16.73;69.46;98018.47;5043180;28;20049;-38